sensor_id;sensor_type;location;lat;lon;timestamp;temperature;humidity
67249;SHT31;63247;54.300;18.592;2023-12-07T00:00:30;-2.39;99.99
67249;SHT31;63247;54.300;18.592;2023-12-07T00:02:56;-2.41;99.99
67249;SHT31;63247;54.300;18.592;2023-12-07T00:05:21;-2.38;99.99
67249;SHT31;63247;54.300;18.592;2023-12-07T00:07:47;-2.38;99.99
67249;SHT31;63247;54.300;18.592;2023-12-07T00:10:12;-2.37;99.99
67249;SHT31;63247;54.300;18.592;2023-12-07T00:12:38;-2.41;99.99
67249;SHT31;63247;54.300;18.592;2023-12-07T00:15:03;-2.41;99.99
67249;SHT31;63247;54.300;18.592;2023-12-07T00:17:29;-2.41;99.99
67249;SHT31;63247;54.300;18.592;2023-12-07T00:19:54;-2.38;99.99
67249;SHT31;63247;54.300;18.592;2023-12-07T00:22:20;-2.38;99.99
67249;SHT31;63247;54.300;18.592;2023-12-07T00:24:46;-2.34;99.99
67249;SHT31;63247;54.300;18.592;2023-12-07T00:27:11;-2.37;99.99
67249;SHT31;63247;54.300;18.592;2023-12-07T00:29:38;-2.34;99.99
67249;SHT31;63247;54.300;18.592;2023-12-07T00:32:04;-2.34;99.99
67249;SHT31;63247;54.300;18.592;2023-12-07T00:34:29;-2.32;99.99
67249;SHT31;63247;54.300;18.592;2023-12-07T00:36:55;-2.35;99.99
67249;SHT31;63247;54.300;18.592;2023-12-07T00:39:20;-2.39;99.99
67249;SHT31;63247;54.300;18.592;2023-12-07T00:41:46;-2.35;99.99
67249;SHT31;63247;54.300;18.592;2023-12-07T00:44:16;-2.37;99.99
67249;SHT31;63247;54.300;18.592;2023-12-07T00:46:41;-2.32;99.99
67249;SHT31;63247;54.300;18.592;2023-12-07T00:49:07;-2.35;99.99
67249;SHT31;63247;54.300;18.592;2023-12-07T00:51:32;-2.32;99.99
67249;SHT31;63247;54.300;18.592;2023-12-07T00:53:57;-2.32;99.99
67249;SHT31;63247;54.300;18.592;2023-12-07T00:56:24;-2.32;99.99
67249;SHT31;63247;54.300;18.592;2023-12-07T00:58:50;-2.31;99.99
67249;SHT31;63247;54.300;18.592;2023-12-07T01:01:15;-2.31;99.99
67249;SHT31;63247;54.300;18.592;2023-12-07T01:03:41;-2.34;99.99
67249;SHT31;63247;54.300;18.592;2023-12-07T01:06:07;-2.38;99.99
67249;SHT31;63247;54.300;18.592;2023-12-07T01:08:33;-2.34;99.99
67249;SHT31;63247;54.300;18.592;2023-12-07T01:10:58;-2.34;99.99
67249;SHT31;63247;54.300;18.592;2023-12-07T01:13:24;-2.38;99.99
67249;SHT31;63247;54.300;18.592;2023-12-07T01:15:50;-2.39;99.99
67249;SHT31;63247;54.300;18.592;2023-12-07T01:18:15;-2.34;99.99
67249;SHT31;63247;54.300;18.592;2023-12-07T01:20:41;-2.30;99.99
67249;SHT31;63247;54.300;18.592;2023-12-07T01:23:07;-2.31;99.99
67249;SHT31;63247;54.300;18.592;2023-12-07T01:25:34;-2.27;99.99
67249;SHT31;63247;54.300;18.592;2023-12-07T01:28:00;-2.24;99.99
67249;SHT31;63247;54.300;18.592;2023-12-07T01:30:25;-2.30;99.99
67249;SHT31;63247;54.300;18.592;2023-12-07T01:32:51;-2.25;99.99
67249;SHT31;63247;54.300;18.592;2023-12-07T01:35:16;-2.24;99.99
67249;SHT31;63247;54.300;18.592;2023-12-07T01:37:42;-2.28;99.99
67249;SHT31;63247;54.300;18.592;2023-12-07T01:40:08;-2.27;99.99
67249;SHT31;63247;54.300;18.592;2023-12-07T01:42:37;-2.25;99.99
67249;SHT31;63247;54.300;18.592;2023-12-07T01:45:03;-2.31;99.99
67249;SHT31;63247;54.300;18.592;2023-12-07T01:47:29;-2.35;99.99
67249;SHT31;63247;54.300;18.592;2023-12-07T01:49:55;-2.25;99.99
67249;SHT31;63247;54.300;18.592;2023-12-07T01:52:22;-2.24;99.99
67249;SHT31;63247;54.300;18.592;2023-12-07T01:54:48;-2.25;99.99
67249;SHT31;63247;54.300;18.592;2023-12-07T01:57:14;-2.27;99.99
67249;SHT31;63247;54.300;18.592;2023-12-07T01:59:40;-2.24;99.99
67249;SHT31;63247;54.300;18.592;2023-12-07T02:02:05;-2.25;99.99
67249;SHT31;63247;54.300;18.592;2023-12-07T02:04:31;-2.31;99.99
67249;SHT31;63247;54.300;18.592;2023-12-07T02:06:59;-2.22;99.99
67249;SHT31;63247;54.300;18.592;2023-12-07T02:09:26;-2.18;99.99
67249;SHT31;63247;54.300;18.592;2023-12-07T02:11:51;-2.15;99.99
67249;SHT31;63247;54.300;18.592;2023-12-07T02:14:17;-2.17;99.99
67249;SHT31;63247;54.300;18.592;2023-12-07T02:16:47;-2.15;99.99
67249;SHT31;63247;54.300;18.592;2023-12-07T02:22:37;-2.25;99.99
67249;SHT31;63247;54.300;18.592;2023-12-07T02:25:11;-2.21;99.99
67249;SHT31;63247;54.300;18.592;2023-12-07T02:27:41;-2.21;99.99
67249;SHT31;63247;54.300;18.592;2023-12-07T02:30:09;-2.20;99.99
67249;SHT31;63247;54.300;18.592;2023-12-07T02:32:37;-2.12;99.99
67249;SHT31;63247;54.300;18.592;2023-12-07T02:35:03;-2.18;99.99
67249;SHT31;63247;54.300;18.592;2023-12-07T02:37:34;-2.20;99.99
67249;SHT31;63247;54.300;18.592;2023-12-07T02:40:03;-2.21;99.99
67249;SHT31;63247;54.300;18.592;2023-12-07T02:42:31;-2.21;99.99
67249;SHT31;63247;54.300;18.592;2023-12-07T02:44:58;-2.12;99.99
67249;SHT31;63247;54.300;18.592;2023-12-07T02:47:24;-2.27;99.99
67249;SHT31;63247;54.300;18.592;2023-12-07T02:49:49;-2.18;99.99
67249;SHT31;63247;54.300;18.592;2023-12-07T02:52:15;-2.24;99.99
67249;SHT31;63247;54.300;18.592;2023-12-07T02:54:40;-2.18;99.99
67249;SHT31;63247;54.300;18.592;2023-12-07T02:57:06;-2.18;99.99
67249;SHT31;63247;54.300;18.592;2023-12-07T02:59:31;-2.21;99.99
67249;SHT31;63247;54.300;18.592;2023-12-07T03:01:57;-2.17;99.99
67249;SHT31;63247;54.300;18.592;2023-12-07T03:04:22;-2.22;99.99
67249;SHT31;63247;54.300;18.592;2023-12-07T03:06:48;-2.20;99.99
67249;SHT31;63247;54.300;18.592;2023-12-07T03:09:13;-2.25;99.99
67249;SHT31;63247;54.300;18.592;2023-12-07T03:11:39;-2.21;99.99
67249;SHT31;63247;54.300;18.592;2023-12-07T03:14:04;-2.15;99.99
67249;SHT31;63247;54.300;18.592;2023-12-07T03:16:30;-2.14;99.99
67249;SHT31;63247;54.300;18.592;2023-12-07T03:18:55;-2.18;99.99
67249;SHT31;63247;54.300;18.592;2023-12-07T03:21:21;-2.20;99.99
67249;SHT31;63247;54.300;18.592;2023-12-07T03:23:47;-2.20;99.99
67249;SHT31;63247;54.300;18.592;2023-12-07T03:26:12;-2.14;99.99
67249;SHT31;63247;54.300;18.592;2023-12-07T03:28:38;-2.11;99.99
67249;SHT31;63247;54.300;18.592;2023-12-07T03:31:03;-2.14;99.99
67249;SHT31;63247;54.300;18.592;2023-12-07T03:33:29;-2.20;99.99
67249;SHT31;63247;54.300;18.592;2023-12-07T03:35:54;-2.21;99.99
67249;SHT31;63247;54.300;18.592;2023-12-07T03:38:20;-2.17;99.99
67249;SHT31;63247;54.300;18.592;2023-12-07T03:40:45;-2.21;99.99
67249;SHT31;63247;54.300;18.592;2023-12-07T03:43:13;-2.17;99.99
67249;SHT31;63247;54.300;18.592;2023-12-07T03:45:38;-2.18;99.99
67249;SHT31;63247;54.300;18.592;2023-12-07T03:48:04;-2.14;99.99
67249;SHT31;63247;54.300;18.592;2023-12-07T03:50:30;-2.18;99.99
67249;SHT31;63247;54.300;18.592;2023-12-07T03:52:55;-2.15;99.99
67249;SHT31;63247;54.300;18.592;2023-12-07T03:55:21;-2.15;99.99
67249;SHT31;63247;54.300;18.592;2023-12-07T03:57:47;-2.21;99.99
67249;SHT31;63247;54.300;18.592;2023-12-07T04:00:12;-2.15;99.99
67249;SHT31;63247;54.300;18.592;2023-12-07T04:02:38;-2.15;99.99
67249;SHT31;63247;54.300;18.592;2023-12-07T04:05:04;-2.12;99.99
67249;SHT31;63247;54.300;18.592;2023-12-07T04:07:30;-2.22;99.99
67249;SHT31;63247;54.300;18.592;2023-12-07T04:09:55;-2.20;99.99
67249;SHT31;63247;54.300;18.592;2023-12-07T04:12:23;-2.17;99.99
67249;SHT31;63247;54.300;18.592;2023-12-07T04:14:50;-2.14;99.99
67249;SHT31;63247;54.300;18.592;2023-12-07T04:17:15;-2.10;99.99
67249;SHT31;63247;54.300;18.592;2023-12-07T04:19:41;-2.11;99.99
67249;SHT31;63247;54.300;18.592;2023-12-07T04:22:06;-2.05;99.99
67249;SHT31;63247;54.300;18.592;2023-12-07T04:24:32;-2.10;99.99
67249;SHT31;63247;54.300;18.592;2023-12-07T04:26:57;-2.14;99.99
67249;SHT31;63247;54.300;18.592;2023-12-07T04:29:23;-2.07;99.99
67249;SHT31;63247;54.300;18.592;2023-12-07T04:31:48;-2.07;99.99
67249;SHT31;63247;54.300;18.592;2023-12-07T04:34:14;-2.08;99.99
67249;SHT31;63247;54.300;18.592;2023-12-07T04:36:39;-2.10;99.99
67249;SHT31;63247;54.300;18.592;2023-12-07T04:39:05;-2.08;99.99
67249;SHT31;63247;54.300;18.592;2023-12-07T04:41:30;-2.08;99.99
67249;SHT31;63247;54.300;18.592;2023-12-07T04:43:56;-2.07;99.99
67249;SHT31;63247;54.300;18.592;2023-12-07T04:46:21;-2.07;99.99
67249;SHT31;63247;54.300;18.592;2023-12-07T04:48:47;-2.07;99.99
67249;SHT31;63247;54.300;18.592;2023-12-07T04:51:13;-2.11;99.99
67249;SHT31;63247;54.300;18.592;2023-12-07T04:53:38;-2.07;99.99
67249;SHT31;63247;54.300;18.592;2023-12-07T04:56:04;-2.07;99.99
67249;SHT31;63247;54.300;18.592;2023-12-07T04:58:30;-2.10;99.99
67249;SHT31;63247;54.300;18.592;2023-12-07T05:00:55;-2.10;99.99
67249;SHT31;63247;54.300;18.592;2023-12-07T05:03:22;-2.02;99.99
67249;SHT31;63247;54.300;18.592;2023-12-07T05:05:47;-2.08;99.99
67249;SHT31;63247;54.300;18.592;2023-12-07T05:08:15;-2.02;99.99
67249;SHT31;63247;54.300;18.592;2023-12-07T05:10:40;-2.07;99.99
67249;SHT31;63247;54.300;18.592;2023-12-07T05:13:06;-2.10;99.99
67249;SHT31;63247;54.300;18.592;2023-12-07T05:15:31;-2.05;99.99
67249;SHT31;63247;54.300;18.592;2023-12-07T05:17:57;-2.04;99.99
67249;SHT31;63247;54.300;18.592;2023-12-07T05:20:22;-2.05;99.99
67249;SHT31;63247;54.300;18.592;2023-12-07T05:22:49;-2.04;99.99
67249;SHT31;63247;54.300;18.592;2023-12-07T05:25:15;-2.07;99.99
67249;SHT31;63247;54.300;18.592;2023-12-07T05:27:41;-2.10;99.99
67249;SHT31;63247;54.300;18.592;2023-12-07T05:30:07;-2.11;99.99
67249;SHT31;63247;54.300;18.592;2023-12-07T05:32:32;-2.21;99.99
67249;SHT31;63247;54.300;18.592;2023-12-07T05:34:58;-2.17;99.99
67249;SHT31;63247;54.300;18.592;2023-12-07T05:37:24;-2.21;99.99
67249;SHT31;63247;54.300;18.592;2023-12-07T05:39:49;-2.21;99.99
67249;SHT31;63247;54.300;18.592;2023-12-07T05:42:15;-2.18;99.99
67249;SHT31;63247;54.300;18.592;2023-12-07T05:44:41;-2.20;99.99
67249;SHT31;63247;54.300;18.592;2023-12-07T05:47:06;-2.21;99.99
67249;SHT31;63247;54.300;18.592;2023-12-07T05:49:33;-2.27;99.99
67249;SHT31;63247;54.300;18.592;2023-12-07T05:51:59;-2.31;99.99
67249;SHT31;63247;54.300;18.592;2023-12-07T05:54:24;-2.25;99.99
67249;SHT31;63247;54.300;18.592;2023-12-07T05:56:50;-2.24;99.99
67249;SHT31;63247;54.300;18.592;2023-12-07T05:59:16;-2.38;99.99
67249;SHT31;63247;54.300;18.592;2023-12-07T06:01:41;-2.35;99.99
67249;SHT31;63247;54.300;18.592;2023-12-07T06:04:08;-2.35;99.99
67249;SHT31;63247;54.300;18.592;2023-12-07T06:06:38;-2.30;99.99
67249;SHT31;63247;54.300;18.592;2023-12-07T06:09:04;-2.35;99.99
67249;SHT31;63247;54.300;18.592;2023-12-07T06:11:31;-2.35;99.99
67249;SHT31;63247;54.300;18.592;2023-12-07T06:13:57;-2.39;99.99
67249;SHT31;63247;54.300;18.592;2023-12-07T06:16:24;-2.38;99.99
67249;SHT31;63247;54.300;18.592;2023-12-07T06:18:50;-2.42;99.99
67249;SHT31;63247;54.300;18.592;2023-12-07T06:21:16;-2.44;99.99
67249;SHT31;63247;54.300;18.592;2023-12-07T06:23:42;-2.39;99.99
67249;SHT31;63247;54.300;18.592;2023-12-07T06:26:07;-2.46;99.99
67249;SHT31;63247;54.300;18.592;2023-12-07T06:28:33;-2.37;99.99
67249;SHT31;63247;54.300;18.592;2023-12-07T06:31:04;-2.48;99.99
67249;SHT31;63247;54.300;18.592;2023-12-07T06:33:31;-2.45;99.99
67249;SHT31;63247;54.300;18.592;2023-12-07T06:35:56;-2.42;99.99
67249;SHT31;63247;54.300;18.592;2023-12-07T06:38:22;-2.35;99.99
67249;SHT31;63247;54.300;18.592;2023-12-07T06:40:47;-2.31;99.99
67249;SHT31;63247;54.300;18.592;2023-12-07T06:43:13;-2.34;99.99
67249;SHT31;63247;54.300;18.592;2023-12-07T06:45:39;-2.31;99.99
67249;SHT31;63247;54.300;18.592;2023-12-07T06:48:05;-2.39;99.99
67249;SHT31;63247;54.300;18.592;2023-12-07T06:50:30;-2.39;99.99
67249;SHT31;63247;54.300;18.592;2023-12-07T06:52:57;-2.44;99.99
67249;SHT31;63247;54.300;18.592;2023-12-07T06:55:22;-2.39;99.99
67249;SHT31;63247;54.300;18.592;2023-12-07T06:57:48;-2.44;99.99
67249;SHT31;63247;54.300;18.592;2023-12-07T07:00:13;-2.34;99.99
67249;SHT31;63247;54.300;18.592;2023-12-07T07:02:39;-2.30;99.99
67249;SHT31;63247;54.300;18.592;2023-12-07T07:05:05;-2.34;99.99
67249;SHT31;63247;54.300;18.592;2023-12-07T07:07:31;-2.27;99.99
67249;SHT31;63247;54.300;18.592;2023-12-07T07:09:57;-2.28;99.99
67249;SHT31;63247;54.300;18.592;2023-12-07T07:12:23;-2.22;99.99
67249;SHT31;63247;54.300;18.592;2023-12-07T07:14:48;-2.24;99.99
67249;SHT31;63247;54.300;18.592;2023-12-07T07:17:14;-2.21;99.99
67249;SHT31;63247;54.300;18.592;2023-12-07T07:19:40;-2.25;99.99
67249;SHT31;63247;54.300;18.592;2023-12-07T07:22:07;-2.15;99.99
67249;SHT31;63247;54.300;18.592;2023-12-07T07:24:34;-2.11;99.99
67249;SHT31;63247;54.300;18.592;2023-12-07T07:26:59;-2.11;99.99
67249;SHT31;63247;54.300;18.592;2023-12-07T07:29:25;-2.05;99.99
67249;SHT31;63247;54.300;18.592;2023-12-07T07:31:51;-2.07;99.99
67249;SHT31;63247;54.300;18.592;2023-12-07T07:34:16;-2.05;99.99
67249;SHT31;63247;54.300;18.592;2023-12-07T07:36:42;-1.98;99.99
67249;SHT31;63247;54.300;18.592;2023-12-07T07:39:07;-1.91;99.99
67249;SHT31;63247;54.300;18.592;2023-12-07T07:41:34;-1.81;99.99
67249;SHT31;63247;54.300;18.592;2023-12-07T07:43:59;-1.81;99.99
67249;SHT31;63247;54.300;18.592;2023-12-07T07:46:25;-1.86;99.99
67249;SHT31;63247;54.300;18.592;2023-12-07T07:48:50;-1.81;99.99
67249;SHT31;63247;54.300;18.592;2023-12-07T07:51:16;-1.77;99.99
67249;SHT31;63247;54.300;18.592;2023-12-07T07:53:41;-1.80;99.99
67249;SHT31;63247;54.300;18.592;2023-12-07T07:56:07;-1.76;99.99
67249;SHT31;63247;54.300;18.592;2023-12-07T07:58:34;-1.81;99.99
67249;SHT31;63247;54.300;18.592;2023-12-07T08:00:59;-1.84;99.99
67249;SHT31;63247;54.300;18.592;2023-12-07T08:03:25;-1.77;99.99
67249;SHT31;63247;54.300;18.592;2023-12-07T08:05:50;-1.70;99.99
67249;SHT31;63247;54.300;18.592;2023-12-07T08:08:16;-1.67;99.99
67249;SHT31;63247;54.300;18.592;2023-12-07T08:10:42;-1.66;99.99
67249;SHT31;63247;54.300;18.592;2023-12-07T08:13:07;-1.69;99.99
67249;SHT31;63247;54.300;18.592;2023-12-07T08:15:33;-1.55;99.99
67249;SHT31;63247;54.300;18.592;2023-12-07T08:17:59;-1.59;99.99
67249;SHT31;63247;54.300;18.592;2023-12-07T08:20:24;-1.59;99.99
67249;SHT31;63247;54.300;18.592;2023-12-07T08:22:50;-1.62;99.99
67249;SHT31;63247;54.300;18.592;2023-12-07T08:25:16;-1.52;99.99
67249;SHT31;63247;54.300;18.592;2023-12-07T08:27:43;-1.55;99.99
67249;SHT31;63247;54.300;18.592;2023-12-07T08:30:12;-1.42;99.99
67249;SHT31;63247;54.300;18.592;2023-12-07T08:32:38;-1.34;99.99
67249;SHT31;63247;54.300;18.592;2023-12-07T08:35:04;-1.42;99.99
67249;SHT31;63247;54.300;18.592;2023-12-07T08:37:31;-1.48;99.99
67249;SHT31;63247;54.300;18.592;2023-12-07T08:39:58;-1.45;99.99
67249;SHT31;63247;54.300;18.592;2023-12-07T08:42:23;-1.42;99.99
67249;SHT31;63247;54.300;18.592;2023-12-07T08:44:48;-1.38;99.99
67249;SHT31;63247;54.300;18.592;2023-12-07T08:47:14;-1.19;99.99
67249;SHT31;63247;54.300;18.592;2023-12-07T08:49:39;-1.27;99.99
67249;SHT31;63247;54.300;18.592;2023-12-07T08:52:05;-1.38;99.99
67249;SHT31;63247;54.300;18.592;2023-12-07T08:54:31;-1.32;99.99
67249;SHT31;63247;54.300;18.592;2023-12-07T08:56:57;-1.24;99.99
67249;SHT31;63247;54.300;18.592;2023-12-07T08:59:22;-1.38;99.99
67249;SHT31;63247;54.300;18.592;2023-12-07T09:01:48;-1.34;99.99
67249;SHT31;63247;54.300;18.592;2023-12-07T09:04:13;-1.42;99.99
67249;SHT31;63247;54.300;18.592;2023-12-07T09:06:39;-1.25;99.99
67249;SHT31;63247;54.300;18.592;2023-12-07T09:09:04;-1.15;99.99
67249;SHT31;63247;54.300;18.592;2023-12-07T09:11:30;-1.15;99.99
67249;SHT31;63247;54.300;18.592;2023-12-07T09:13:57;-1.11;99.99
67249;SHT31;63247;54.300;18.592;2023-12-07T09:16:22;-1.07;99.99
67249;SHT31;63247;54.300;18.592;2023-12-07T09:18:48;-1.08;99.99
67249;SHT31;63247;54.300;18.592;2023-12-07T09:21:13;-1.11;99.99
67249;SHT31;63247;54.300;18.592;2023-12-07T09:23:39;-1.16;99.99
67249;SHT31;63247;54.300;18.592;2023-12-07T09:26:04;-1.12;99.99
67249;SHT31;63247;54.300;18.592;2023-12-07T09:28:31;-0.98;99.99
67249;SHT31;63247;54.300;18.592;2023-12-07T09:30:58;-1.01;99.99
67249;SHT31;63247;54.300;18.592;2023-12-07T09:33:23;-0.97;99.99
67249;SHT31;63247;54.300;18.592;2023-12-07T09:35:49;-0.88;99.99
67249;SHT31;63247;54.300;18.592;2023-12-07T09:38:14;-0.70;99.99
67249;SHT31;63247;54.300;18.592;2023-12-07T09:40:40;-0.88;99.99
67249;SHT31;63247;54.300;18.592;2023-12-07T09:43:06;-0.83;99.99
67249;SHT31;63247;54.300;18.592;2023-12-07T09:45:32;-0.84;99.99
67249;SHT31;63247;54.300;18.592;2023-12-07T09:47:58;-0.67;99.99
67249;SHT31;63247;54.300;18.592;2023-12-07T09:50:27;-0.67;99.99
67249;SHT31;63247;54.300;18.592;2023-12-07T09:52:57;-0.49;99.99
67249;SHT31;63247;54.300;18.592;2023-12-07T09:55:23;-0.56;99.99
67249;SHT31;63247;54.300;18.592;2023-12-07T09:57:50;-0.57;99.99
67249;SHT31;63247;54.300;18.592;2023-12-07T10:00:16;-0.62;99.99
67249;SHT31;63247;54.300;18.592;2023-12-07T10:02:45;-0.67;99.99
67249;SHT31;63247;54.300;18.592;2023-12-07T10:05:12;-0.57;99.99
67249;SHT31;63247;54.300;18.592;2023-12-07T10:07:46;-0.83;99.99
67249;SHT31;63247;54.300;18.592;2023-12-07T10:10:16;-0.69;99.99
67249;SHT31;63247;54.300;18.592;2023-12-07T10:15:15;-0.69;99.99
67249;SHT31;63247;54.300;18.592;2023-12-07T10:17:56;-0.59;99.99
67249;SHT31;63247;54.300;18.592;2023-12-07T10:20:26;-0.57;99.99
67249;SHT31;63247;54.300;18.592;2023-12-07T10:25:31;-0.36;99.99
67249;SHT31;63247;54.300;18.592;2023-12-07T10:27:57;-0.36;99.99
67249;SHT31;63247;54.300;18.592;2023-12-07T10:30:22;-0.49;99.99
67249;SHT31;63247;54.300;18.592;2023-12-07T10:32:51;-0.50;99.99
67249;SHT31;63247;54.300;18.592;2023-12-07T10:35:18;-0.69;99.99
67249;SHT31;63247;54.300;18.592;2023-12-07T10:37:44;-0.64;99.99
67249;SHT31;63247;54.300;18.592;2023-12-07T10:40:10;-0.49;99.99
67249;SHT31;63247;54.300;18.592;2023-12-07T10:42:36;-0.40;99.99
67249;SHT31;63247;54.300;18.592;2023-12-07T10:45:04;-0.16;99.99
67249;SHT31;63247;54.300;18.592;2023-12-07T10:47:35;-0.21;99.99
67249;SHT31;63247;54.300;18.592;2023-12-07T10:50:03;-0.48;99.99
67249;SHT31;63247;54.300;18.592;2023-12-07T10:52:31;-0.43;99.99
67249;SHT31;63247;54.300;18.592;2023-12-07T10:55:05;-0.56;99.99
67249;SHT31;63247;54.300;18.592;2023-12-07T10:57:33;-0.64;99.99
67249;SHT31;63247;54.300;18.592;2023-12-07T11:00:00;-0.63;99.99
67249;SHT31;63247;54.300;18.592;2023-12-07T11:02:29;-0.67;99.99
67249;SHT31;63247;54.300;18.592;2023-12-07T11:04:58;-0.76;99.99
67249;SHT31;63247;54.300;18.592;2023-12-07T11:07:28;-0.74;99.99
67249;SHT31;63247;54.300;18.592;2023-12-07T11:10:15;-0.79;99.99
67249;SHT31;63247;54.300;18.592;2023-12-07T11:13:00;-0.57;99.99
67249;SHT31;63247;54.300;18.592;2023-12-07T11:15:32;-0.56;99.99
67249;SHT31;63247;54.300;18.592;2023-12-07T11:17:58;-0.76;99.99
67249;SHT31;63247;54.300;18.592;2023-12-07T11:20:44;-0.57;99.99
67249;SHT31;63247;54.300;18.592;2023-12-07T11:23:11;-0.43;99.99
67249;SHT31;63247;54.300;18.592;2023-12-07T11:25:37;-0.57;99.99
67249;SHT31;63247;54.300;18.592;2023-12-07T11:28:04;-0.67;99.99
67249;SHT31;63247;54.300;18.592;2023-12-07T11:30:31;-0.73;99.99
67249;SHT31;63247;54.300;18.592;2023-12-07T11:32:57;-0.79;99.99
67249;SHT31;63247;54.300;18.592;2023-12-07T11:35:23;-0.84;99.99
67249;SHT31;63247;54.300;18.592;2023-12-07T11:38:08;-0.79;99.99
67249;SHT31;63247;54.300;18.592;2023-12-07T11:40:42;-0.70;99.99
67249;SHT31;63247;54.300;18.592;2023-12-07T11:43:16;-0.80;99.99
67249;SHT31;63247;54.300;18.592;2023-12-07T11:45:47;-0.69;99.99
67249;SHT31;63247;54.300;18.592;2023-12-07T11:48:14;-0.69;99.99
67249;SHT31;63247;54.300;18.592;2023-12-07T11:51:07;-0.63;99.99
67249;SHT31;63247;54.300;18.592;2023-12-07T11:53:37;-0.66;99.99
67249;SHT31;63247;54.300;18.592;2023-12-07T11:56:07;-0.83;99.99
67249;SHT31;63247;54.300;18.592;2023-12-07T11:58:34;-0.88;99.99
67249;SHT31;63247;54.300;18.592;2023-12-07T12:01:01;-0.88;99.99
67249;SHT31;63247;54.300;18.592;2023-12-07T12:03:28;-0.94;99.99
67249;SHT31;63247;54.300;18.592;2023-12-07T12:05:54;-0.91;99.99
67249;SHT31;63247;54.300;18.592;2023-12-07T12:08:20;-0.88;99.99
67249;SHT31;63247;54.300;18.592;2023-12-07T12:10:47;-0.87;99.99
67249;SHT31;63247;54.300;18.592;2023-12-07T12:13:14;-0.87;99.99
67249;SHT31;63247;54.300;18.592;2023-12-07T12:15:40;-0.80;99.99
67249;SHT31;63247;54.300;18.592;2023-12-07T12:18:06;-0.87;99.99
67249;SHT31;63247;54.300;18.592;2023-12-07T12:20:32;-0.83;99.99
67249;SHT31;63247;54.300;18.592;2023-12-07T12:22:58;-0.74;99.99
67249;SHT31;63247;54.300;18.592;2023-12-07T12:25:29;-0.93;99.99
67249;SHT31;63247;54.300;18.592;2023-12-07T12:28:01;-0.77;99.99
67249;SHT31;63247;54.300;18.592;2023-12-07T12:30:27;-0.85;99.99
67249;SHT31;63247;54.300;18.592;2023-12-07T12:32:53;-0.81;99.99
67249;SHT31;63247;54.300;18.592;2023-12-07T12:35:19;-0.83;99.99
67249;SHT31;63247;54.300;18.592;2023-12-07T12:37:46;-0.76;99.99
67249;SHT31;63247;54.300;18.592;2023-12-07T12:40:13;-0.72;99.99
67249;SHT31;63247;54.300;18.592;2023-12-07T12:42:43;-0.87;99.99
67249;SHT31;63247;54.300;18.592;2023-12-07T12:45:10;-0.88;99.99
67249;SHT31;63247;54.300;18.592;2023-12-07T12:47:39;-0.73;99.99
67249;SHT31;63247;54.300;18.592;2023-12-07T12:50:05;-0.73;99.99
67249;SHT31;63247;54.300;18.592;2023-12-07T12:52:32;-0.69;99.99
67249;SHT31;63247;54.300;18.592;2023-12-07T12:54:59;-0.77;99.99
67249;SHT31;63247;54.300;18.592;2023-12-07T12:57:25;-0.77;99.99
67249;SHT31;63247;54.300;18.592;2023-12-07T12:59:53;-0.72;99.99
67249;SHT31;63247;54.300;18.592;2023-12-07T13:02:20;-0.74;99.99
67249;SHT31;63247;54.300;18.592;2023-12-07T13:04:46;-0.76;99.99
67249;SHT31;63247;54.300;18.592;2023-12-07T13:07:12;-0.73;99.99
67249;SHT31;63247;54.300;18.592;2023-12-07T13:09:38;-0.66;99.99
67249;SHT31;63247;54.300;18.592;2023-12-07T13:12:04;-0.64;99.99
67249;SHT31;63247;54.300;18.592;2023-12-07T13:14:30;-0.66;99.99
67249;SHT31;63247;54.300;18.592;2023-12-07T13:16:55;-0.74;99.99
67249;SHT31;63247;54.300;18.592;2023-12-07T13:19:21;-0.73;99.99
67249;SHT31;63247;54.300;18.592;2023-12-07T13:21:47;-0.73;99.99
67249;SHT31;63247;54.300;18.592;2023-12-07T13:24:12;-0.80;99.99
67249;SHT31;63247;54.300;18.592;2023-12-07T13:26:41;-0.74;99.99
67249;SHT31;63247;54.300;18.592;2023-12-07T13:29:06;-0.81;99.99
67249;SHT31;63247;54.300;18.592;2023-12-07T13:31:33;-0.83;99.99
67249;SHT31;63247;54.300;18.592;2023-12-07T13:34:00;-0.83;99.99
67249;SHT31;63247;54.300;18.592;2023-12-07T13:36:25;-0.88;99.99
67249;SHT31;63247;54.300;18.592;2023-12-07T13:38:53;-0.90;99.99
67249;SHT31;63247;54.300;18.592;2023-12-07T13:41:18;-0.83;99.99
67249;SHT31;63247;54.300;18.592;2023-12-07T13:43:44;-0.76;99.99
67249;SHT31;63247;54.300;18.592;2023-12-07T13:46:10;-0.70;99.99
67249;SHT31;63247;54.300;18.592;2023-12-07T13:48:36;-0.72;99.99
67249;SHT31;63247;54.300;18.592;2023-12-07T13:51:01;-0.74;99.99
67249;SHT31;63247;54.300;18.592;2023-12-07T13:53:27;-0.80;99.99
67249;SHT31;63247;54.300;18.592;2023-12-07T13:55:53;-0.73;99.99
67249;SHT31;63247;54.300;18.592;2023-12-07T13:58:18;-0.80;99.99
67249;SHT31;63247;54.300;18.592;2023-12-07T14:00:44;-0.79;99.99
67249;SHT31;63247;54.300;18.592;2023-12-07T14:03:11;-0.79;99.99
67249;SHT31;63247;54.300;18.592;2023-12-07T14:05:38;-0.87;99.99
67249;SHT31;63247;54.300;18.592;2023-12-07T14:08:05;-0.77;99.99
67249;SHT31;63247;54.300;18.592;2023-12-07T14:10:30;-0.73;99.99
67249;SHT31;63247;54.300;18.592;2023-12-07T14:12:56;-0.79;99.99
67249;SHT31;63247;54.300;18.592;2023-12-07T14:15:21;-0.79;99.99
67249;SHT31;63247;54.300;18.592;2023-12-07T14:17:47;-0.87;99.99
67249;SHT31;63247;54.300;18.592;2023-12-07T14:20:12;-0.85;99.99
67249;SHT31;63247;54.300;18.592;2023-12-07T14:22:39;-0.84;99.99
67249;SHT31;63247;54.300;18.592;2023-12-07T14:25:05;-0.85;99.99
67249;SHT31;63247;54.300;18.592;2023-12-07T14:27:31;-0.88;99.99
67249;SHT31;63247;54.300;18.592;2023-12-07T14:29:56;-0.79;99.99
67249;SHT31;63247;54.300;18.592;2023-12-07T14:32:22;-0.85;99.99
67249;SHT31;63247;54.300;18.592;2023-12-07T14:34:47;-0.81;99.99
67249;SHT31;63247;54.300;18.592;2023-12-07T14:37:13;-0.90;99.99
67249;SHT31;63247;54.300;18.592;2023-12-07T14:39:41;-0.81;99.99
67249;SHT31;63247;54.300;18.592;2023-12-07T14:42:08;-0.77;99.99
67249;SHT31;63247;54.300;18.592;2023-12-07T14:44:34;-0.85;99.99
67249;SHT31;63247;54.300;18.592;2023-12-07T14:46:59;-0.70;99.99
67249;SHT31;63247;54.300;18.592;2023-12-07T14:49:25;-0.72;99.99
67249;SHT31;63247;54.300;18.592;2023-12-07T14:51:51;-0.81;99.99
67249;SHT31;63247;54.300;18.592;2023-12-07T14:54:17;-0.84;99.99
67249;SHT31;63247;54.300;18.592;2023-12-07T14:56:43;-0.80;99.99
67249;SHT31;63247;54.300;18.592;2023-12-07T14:59:12;-0.85;99.99
67249;SHT31;63247;54.300;18.592;2023-12-07T15:01:38;-0.83;99.99
67249;SHT31;63247;54.300;18.592;2023-12-07T15:04:04;-0.80;99.99
67249;SHT31;63247;54.300;18.592;2023-12-07T15:06:31;-0.76;99.99
67249;SHT31;63247;54.300;18.592;2023-12-07T15:08:57;-0.88;99.99
67249;SHT31;63247;54.300;18.592;2023-12-07T15:11:23;-0.87;99.99
67249;SHT31;63247;54.300;18.592;2023-12-07T15:13:49;-0.87;99.99
67249;SHT31;63247;54.300;18.592;2023-12-07T15:16:14;-0.83;99.99
67249;SHT31;63247;54.300;18.592;2023-12-07T15:18:40;-0.80;99.99